Time;durP1;ratioP1;P1;durP2;ratioP2;P2;SDS_P1;SDS_P2;PMS_P1;PMS_P2;Temp;Humidity;BMP_temperature;BMP_pressure;BME280_temperature;BME280_humidity;BME280_pressure;Samples;Min_cycle;Max_cycle;Signal;HPM_P1;HPM_P2
2023/08/04 00:02:12;;;;;;;1.80;0.70;;;;;;;-128.00;-1.00;-1.00;18888;286;7504688;-31
2023/08/04 00:04:37;;;;;;;3.00;0.90;;;;;;;-128.00;-1.00;-1.00;18489;293;7505251;-31
2023/08/04 00:07:03;;;;;;;1.10;0.50;;;;;;;-128.00;-1.00;-1.00;18475;294;7504716;-31
2023/08/04 00:09:29;;;;;;;6.40;1.10;;;;;;;-128.00;-1.00;-1.00;18499;305;7506573;-32
2023/08/04 00:11:54;;;;;;;0.60;0.40;;;;;;;-128.00;-1.00;-1.00;18474;294;7504946;-35
2023/08/04 00:14:21;;;;;;;2.50;0.60;;;;;;;-128.00;-1.00;-1.00;18875;323;7504439;-30
2023/08/04 00:16:47;;;;;;;7.40;0.80;;;;;;;-128.00;-1.00;-1.00;18887;294;7504494;-31
2023/08/04 00:19:13;;;;;;;1.50;0.40;;;;;;;-128.00;-1.00;-1.00;18888;294;7504684;-31
2023/08/04 00:21:39;;;;;;;4.30;0.70;;;;;;;-128.00;-1.00;-1.00;18898;294;7504678;-35
2023/08/04 00:24:05;;;;;;;1.20;0.60;;;;;;;-128.00;-1.00;-1.00;18898;294;7505423;-31
2023/08/04 00:26:32;;;;;;;3.10;1.10;;;;;;;-128.00;-1.00;-1.00;18886;346;7505169;-35
2023/08/04 00:28:57;;;;;;;0.60;0.40;;;;;;;-128.00;-1.00;-1.00;18486;294;7506480;-31
2023/08/04 00:31:24;;;;;;;1.20;0.40;;;;;;;-128.00;-1.00;-1.00;18464;317;7505683;-35
2023/08/04 00:33:49;;;;;;;1.10;0.50;;;;;;;-128.00;-1.00;-1.00;18486;294;7506053;-35
2023/08/04 00:36:15;;;;;;;3.00;0.50;;;;;;;-128.00;-1.00;-1.00;18485;294;7504339;-31
2023/08/04 01:19:41;;;;;;;4.40;0.70;;;;;;;-99.51;19.20;19724.96;19565;297;8047499;-34
2023/08/04 01:22:07;;;;;;;3.80;0.60;;;;;;;-128.00;-1.00;-1.00;18605;349;7505023;-34
2023/08/04 01:24:34;;;;;;;1.70;0.70;;;;;;;-128.00;-1.00;-1.00;18865;296;7504556;-36
2023/08/04 01:27:00;;;;;;;1.20;0.60;;;;;;;-128.00;-1.00;-1.00;18850;305;7504346;-32
2023/08/04 01:29:26;;;;;;;2.20;0.70;;;;;;;-128.00;-1.00;-1.00;18867;296;7504478;-30
2023/08/04 01:31:52;;;;;;;0.80;0.40;;;;;;;-128.00;-1.00;-1.00;18481;320;7504697;-30
2023/08/04 01:34:18;;;;;;;1.00;0.50;;;;;;;-128.00;-1.00;-1.00;18869;296;7504441;-34
2023/08/04 01:36:45;;;;;;;3.20;0.50;;;;;;;-128.00;-1.00;-1.00;18870;296;7505307;-33
2023/08/04 01:39:11;;;;;;;1.80;0.50;;;;;;;-128.00;-1.00;-1.00;18493;296;7505905;-34
2023/08/04 01:41:37;;;;;;;2.90;1.10;;;;;;;-128.00;-1.00;-1.00;18474;296;7504560;-30
2023/08/04 01:44:03;;;;;;;0.90;0.60;;;;;;;-128.00;-1.00;-1.00;18479;296;7504767;-34
2023/08/04 01:46:28;;;;;;;4.20;0.90;;;;;;;-128.00;-1.00;-1.00;18473;296;7506066;-33
2023/08/04 01:48:54;;;;;;;1.60;0.70;;;;;;;-128.00;-1.00;-1.00;18903;296;7507781;-30
2023/08/04 01:51:21;;;;;;;5.60;0.60;;;;;;;-128.00;-1.00;-1.00;18880;296;7504287;-32
2023/08/04 01:53:47;;;;;;;1.30;0.60;;;;;;;-128.00;-1.00;-1.00;18876;320;7505250;-36
2023/08/04 01:56:13;;;;;;;2.60;0.90;;;;;;;-128.00;-1.00;-1.00;18884;348;7504518;-35
2023/08/04 01:58:39;;;;;;;1.30;0.70;;;;;;;-128.00;-1.00;-1.00;18871;337;7504641;-32
2023/08/04 02:01:05;;;;;;;1.60;0.60;;;;;;;-128.00;-1.00;-1.00;18883;288;7505414;-35
2023/08/04 02:03:33;;;;;;;1.00;0.70;;;;;;;-128.00;-1.00;-1.00;18855;348;7504753;-31
2023/08/04 02:06:00;;;;;;;1.30;0.70;;;;;;;-128.00;-1.00;-1.00;18479;296;7506085;-34
2023/08/04 02:08:26;;;;;;;1.00;0.50;;;;;;;-128.00;-1.00;-1.00;18893;288;7505510;-31
2023/08/04 02:10:52;;;;;;;2.10;0.60;;;;;;;-128.00;-1.00;-1.00;18872;296;7504368;-35
2023/08/04 02:13:19;;;;;;;2.30;0.90;;;;;;;-128.00;-1.00;-1.00;18873;288;7504835;-31
2023/08/04 02:15:45;;;;;;;6.50;0.90;;;;;;;-128.00;-1.00;-1.00;18861;296;7504901;-35
2023/08/04 02:18:11;;;;;;;4.40;0.90;;;;;;;-128.00;-1.00;-1.00;18868;295;7504284;-32
2023/08/04 02:20:37;;;;;;;3.30;0.90;;;;;;;-128.00;-1.00;-1.00;18875;296;7504642;-35
2023/08/04 02:23:04;;;;;;;0.90;0.40;;;;;;;-128.00;-1.00;-1.00;18877;296;7504852;-35
2023/08/04 02:25:29;;;;;;;9.70;0.90;;;;;;;-128.00;-1.00;-1.00;18463;296;7504772;-32
2023/08/04 02:27:56;;;;;;;1.30;1.20;;;;;;;-128.00;-1.00;-1.00;18459;296;7504540;-35
2023/08/04 02:30:22;;;;;;;6.00;1.30;;;;;;;-128.00;-1.00;-1.00;18908;288;7504441;-35
2023/08/04 02:32:48;;;;;;;9.90;0.50;;;;;;;-128.00;-1.00;-1.00;18867;296;7504556;-31
2023/08/04 02:35:15;;;;;;;1.30;0.70;;;;;;;-128.00;-1.00;-1.00;18872;295;7504518;-35
2023/08/04 02:37:41;;;;;;;2.10;0.80;;;;;;;-128.00;-1.00;-1.00;18887;288;7504615;-32
2023/08/04 02:40:08;;;;;;;1.80;0.60;;;;;;;-128.00;-1.00;-1.00;18874;295;7504912;-35
2023/08/04 02:42:33;;;;;;;1.50;0.50;;;;;;;-128.00;-1.00;-1.00;18462;296;7505799;-32
2023/08/04 02:44:59;;;;;;;0.40;0.40;;;;;;;-128.00;-1.00;-1.00;18486;296;7504568;-30
2023/08/04 02:47:24;;;;;;;3.80;0.50;;;;;;;-128.00;-1.00;-1.00;18506;288;7504966;-31
2023/08/04 02:49:51;;;;;;;1.30;0.60;;;;;;;-128.00;-1.00;-1.00;18869;288;7504186;-35
2023/08/04 02:52:17;;;;;;;3.60;0.70;;;;;;;-128.00;-1.00;-1.00;18876;295;7504338;-34
2023/08/04 02:54:43;;;;;;;8.10;0.50;;;;;;;-128.00;-1.00;-1.00;18891;336;7504873;-31
2023/08/04 02:57:09;;;;;;;3.10;0.70;;;;;;;-128.00;-1.00;-1.00;18895;296;7504715;-31
2023/08/04 02:59:36;;;;;;;1.10;0.40;;;;;;;-128.00;-1.00;-1.00;18859;348;7505111;-32
2023/08/04 03:02:02;;;;;;;0.50;0.50;;;;;;;-128.00;-1.00;-1.00;18471;336;7504824;-32
2023/08/04 03:04:27;;;;;;;8.40;1.10;;;;;;;-128.00;-1.00;-1.00;18466;296;7504501;-35
2023/08/04 03:06:53;;;;;;;5.20;0.80;;;;;;;-128.00;-1.00;-1.00;18475;296;7505058;-31
2023/08/04 03:09:19;;;;;;;0.60;0.50;;;;;;;-128.00;-1.00;-1.00;18497;296;7505988;-35
2023/08/04 03:11:45;;;;;;;2.50;0.40;;;;;;;-128.00;-1.00;-1.00;18873;295;7504546;-31
2023/08/04 03:14:11;;;;;;;1.30;0.40;;;;;;;-128.00;-1.00;-1.00;18874;288;7505047;-31
2023/08/04 03:16:37;;;;;;;2.90;0.60;;;;;;;-128.00;-1.00;-1.00;18865;295;7504194;-30
2023/08/04 03:19:03;;;;;;;1.00;0.60;;;;;;;-128.00;-1.00;-1.00;18908;288;7505459;-34
2023/08/04 03:21:29;;;;;;;1.10;0.60;;;;;;;-128.00;-1.00;-1.00;18893;295;7505142;-35
2023/08/04 03:23:55;;;;;;;1.00;0.60;;;;;;;-128.00;-1.00;-1.00;18859;288;7504675;-31
2023/08/04 03:26:22;;;;;;;1.10;0.40;;;;;;;-128.00;-1.00;-1.00;18879;296;7504704;-30
2023/08/04 03:28:48;;;;;;;4.30;0.60;;;;;;;-128.00;-1.00;-1.00;18874;288;7504557;-35
2023/08/04 03:31:14;;;;;;;1.20;0.50;;;;;;;-128.00;-1.00;-1.00;18912;288;7504449;-32
2023/08/04 03:33:40;;;;;;;1.10;0.50;;;;;;;-128.00;-1.00;-1.00;18867;289;7504279;-31
2023/08/04 03:36:06;;;;;;;1.10;0.60;;;;;;;-128.00;-1.00;-1.00;18867;296;7504427;-31
2023/08/04 03:38:33;;;;;;;1.90;0.70;;;;;;;-128.00;-1.00;-1.00;18910;288;7505844;-35
2023/08/04 03:40:59;;;;;;;2.50;0.60;;;;;;;-128.00;-1.00;-1.00;18912;296;7504256;-35
2023/08/04 03:43:25;;;;;;;1.20;0.60;;;;;;;-128.00;-1.00;-1.00;18880;296;7505069;-33
2023/08/04 03:45:51;;;;;;;1.60;0.60;;;;;;;-128.00;-1.00;-1.00;18881;284;7504470;-33
2023/08/04 03:48:17;;;;;;;3.20;0.80;;;;;;;-128.00;-1.00;-1.00;18871;288;7504934;-32
2023/08/04 03:50:43;;;;;;;2.30;0.90;;;;;;;-128.00;-1.00;-1.00;18890;288;7504927;-32
2023/08/04 03:53:09;;;;;;;4.90;0.70;;;;;;;-128.00;-1.00;-1.00;18895;315;7504575;-36
2023/08/04 03:55:36;;;;;;;2.10;0.80;;;;;;;-128.00;-1.00;-1.00;18884;296;7505343;-31
2023/08/04 03:58:02;;;;;;;1.90;0.70;;;;;;;-128.00;-1.00;-1.00;18915;288;7505705;-32
2023/08/04 04:00:28;;;;;;;1.80;0.40;;;;;;;-128.00;-1.00;-1.00;18896;347;7504724;-35
2023/08/04 04:02:54;;;;;;;2.30;0.80;;;;;;;-128.00;-1.00;-1.00;18867;303;7505799;-31
2023/08/04 04:05:21;;;;;;;1.80;0.70;;;;;;;-128.00;-1.00;-1.00;18907;319;7504599;-31
2023/08/04 04:07:48;;;;;;;2.50;0.70;;;;;;;-128.00;-1.00;-1.00;18453;296;7504580;-35
2023/08/04 04:10:14;;;;;;;3.20;1.20;;;;;;;-128.00;-1.00;-1.00;18850;297;7505856;-34
2023/08/04 04:12:41;;;;;;;2.80;0.70;;;;;;;-128.00;-1.00;-1.00;18890;296;7505464;-32
2023/08/04 04:15:07;;;;;;;5.40;1.10;;;;;;;-128.00;-1.00;-1.00;18863;296;7504767;-32
2023/08/04 04:17:34;;;;;;;3.40;0.90;;;;;;;-128.00;-1.00;-1.00;18482;288;7505028;-32
2023/08/04 04:20:00;;;;;;;2.70;0.90;;;;;;;-128.00;-1.00;-1.00;18502;336;7505653;-35
2023/08/04 04:22:26;;;;;;;2.10;0.90;;;;;;;-128.00;-1.00;-1.00;18464;296;7505811;-31
2023/08/04 04:24:51;;;;;;;3.20;0.70;;;;;;;-128.00;-1.00;-1.00;18474;296;7506531;-33
2023/08/04 04:27:17;;;;;;;3.50;0.60;;;;;;;-128.00;-1.00;-1.00;18508;307;7506074;-35
2023/08/04 04:29:44;;;;;;;2.50;0.50;;;;;;;-128.00;-1.00;-1.00;18500;296;7504770;-35
2023/08/04 04:32:10;;;;;;;3.10;0.80;;;;;;;-128.00;-1.00;-1.00;18860;288;7504453;-34
2023/08/04 04:34:36;;;;;;;2.50;0.60;;;;;;;-128.00;-1.00;-1.00;18884;307;7504458;-34
2023/08/04 04:37:02;;;;;;;2.20;0.70;;;;;;;-128.00;-1.00;-1.00;18881;347;7504411;-34
2023/08/04 04:39:29;;;;;;;1.60;0.50;;;;;;;-128.00;-1.00;-1.00;18893;295;7508142;-36
2023/08/04 04:41:55;;;;;;;1.20;0.40;;;;;;;-128.00;-1.00;-1.00;18892;307;7504664;-34
2023/08/04 04:44:22;;;;;;;10.30;0.60;;;;;;;-128.00;-1.00;-1.00;18869;338;7504764;-34
2023/08/04 04:46:47;;;;;;;1.40;0.50;;;;;;;-128.00;-1.00;-1.00;18479;347;7505843;-33
2023/08/04 04:49:14;;;;;;;2.80;0.60;;;;;;;-128.00;-1.00;-1.00;18505;296;7506041;-34
2023/08/04 04:51:39;;;;;;;1.60;0.90;;;;;;;-128.00;-1.00;-1.00;18497;288;7506512;-36
2023/08/04 04:54:06;;;;;;;1.20;0.40;;;;;;;-128.00;-1.00;-1.00;18898;307;7505037;-32
2023/08/04 04:56:32;;;;;;;1.20;0.40;;;;;;;-128.00;-1.00;-1.00;18867;296;7504269;-35
2023/08/04 04:58:58;;;;;;;1.70;0.60;;;;;;;-128.00;-1.00;-1.00;18871;295;7504869;-36
2023/08/04 05:01:24;;;;;;;1.60;0.50;;;;;;;-128.00;-1.00;-1.00;18915;295;7504689;-34
2023/08/04 05:03:50;;;;;;;2.00;0.80;;;;;;;-128.00;-1.00;-1.00;18920;288;7504551;-34
2023/08/04 05:06:17;;;;;;;12.50;0.80;;;;;;;-128.00;-1.00;-1.00;18875;295;7504125;-35
2023/08/04 05:08:43;;;;;;;4.40;0.80;;;;;;;-128.00;-1.00;-1.00;18901;295;7505734;-32
2023/08/04 05:11:09;;;;;;;2.60;0.70;;;;;;;-128.00;-1.00;-1.00;18896;340;7505197;-35
2023/08/04 05:13:35;;;;;;;3.30;1.00;;;;;;;-128.00;-1.00;-1.00;18900;288;7505112;-31
2023/08/04 05:16:01;;;;;;;3.40;0.70;;;;;;;-128.00;-1.00;-1.00;18871;296;7504611;-35
2023/08/04 05:18:28;;;;;;;1.60;1.00;;;;;;;-128.00;-1.00;-1.00;18894;295;7504445;-35
2023/08/04 05:20:54;;;;;;;0.70;0.30;;;;;;;-128.00;-1.00;-1.00;18929;296;7504783;-34
2023/08/04 05:23:21;;;;;;;1.80;0.70;;;;;;;-128.00;-1.00;-1.00;18476;288;7504291;-35
2023/08/04 05:25:47;;;;;;;3.70;0.90;;;;;;;-128.00;-1.00;-1.00;18490;295;7506129;-31
2023/08/04 05:28:27;;;;;;;1.40;0.80;;;;;;;-128.00;-1.00;-1.00;18493;340;7504507;-31
2023/08/04 05:31:01;;;;;;;1.20;0.50;;;;;;;-128.00;-1.00;-1.00;18515;296;7504359;-31
2023/08/04 05:33:27;;;;;;;1.30;0.70;;;;;;;-128.00;-1.00;-1.00;18482;296;7504983;-37
2023/08/04 05:35:53;;;;;;;2.70;0.90;;;;;;;-128.00;-1.00;-1.00;18441;338;7504600;-36
2023/08/04 05:38:19;;;;;;;1.20;0.70;;;;;;;-128.00;-1.00;-1.00;18489;288;7506517;-31
2023/08/04 05:40:46;;;;;;;6.60;1.00;;;;;;;-128.00;-1.00;-1.00;18498;296;7506519;-31
2023/08/04 05:43:12;;;;;;;3.80;0.70;;;;;;;-128.00;-1.00;-1.00;18440;296;7505110;-36
2023/08/04 05:45:40;;;;;;;2.70;1.00;;;;;;;-128.00;-1.00;-1.00;18491;296;7504935;-34
2023/08/04 05:48:05;;;;;;;3.50;0.70;;;;;;;-128.00;-1.00;-1.00;18474;288;7504549;-35
2023/08/04 05:50:31;;;;;;;2.80;0.40;;;;;;;-128.00;-1.00;-1.00;18507;288;7505952;-38
2023/08/04 05:52:57;;;;;;;1.50;0.70;;;;;;;-128.00;-1.00;-1.00;18523;344;7504580;-37
2023/08/04 05:55:23;;;;;;;1.40;0.50;;;;;;;-128.00;-1.00;-1.00;18464;288;7504739;-35
2023/08/04 05:57:50;;;;;;;7.60;0.80;;;;;;;-128.00;-1.00;-1.00;18509;319;7504414;-36
2023/08/04 06:00:16;;;;;;;2.00;0.60;;;;;;;-128.00;-1.00;-1.00;18474;288;7504382;-33
2023/08/04 06:02:43;;;;;;;3.40;0.60;;;;;;;-128.00;-1.00;-1.00;18492;296;7504648;-33
2023/08/04 06:05:09;;;;;;;5.80;1.20;;;;;;;-128.00;-1.00;-1.00;18489;288;7504306;-35
2023/08/04 06:07:35;;;;;;;0.80;0.40;;;;;;;-128.00;-1.00;-1.00;18487;288;7504787;-32
2023/08/04 06:10:01;;;;;;;8.00;0.80;;;;;;;-128.00;-1.00;-1.00;18475;288;7504672;-36
2023/08/04 06:12:27;;;;;;;2.10;0.60;;;;;;;-128.00;-1.00;-1.00;18878;296;7505593;-32
2023/08/04 06:14:53;;;;;;;6.70;1.10;;;;;;;-128.00;-1.00;-1.00;18874;296;7504957;-36
2023/08/04 06:17:19;;;;;;;3.00;0.70;;;;;;;-128.00;-1.00;-1.00;18897;289;7505103;-32
2023/08/04 06:19:46;;;;;;;2.20;1.00;;;;;;;-128.00;-1.00;-1.00;18491;307;7505860;-36
2023/08/04 06:22:15;;;;;;;11.50;3.70;;;;;;;-128.00;-1.00;-1.00;18841;296;7504677;-32
2023/08/04 06:24:41;;;;;;;7.20;3.50;;;;;;;-128.00;-1.00;-1.00;18469;296;7505610;-32
2023/08/04 06:27:07;;;;;;;3.30;0.80;;;;;;;-128.00;-1.00;-1.00;18474;296;7506375;-32
2023/08/04 06:29:34;;;;;;;0.70;0.40;;;;;;;-128.00;-1.00;-1.00;18473;284;7506183;-36
2023/08/04 06:32:00;;;;;;;1.70;0.50;;;;;;;-128.00;-1.00;-1.00;18477;347;7505923;-33
2023/08/04 06:34:25;;;;;;;1.30;0.60;;;;;;;-128.00;-1.00;-1.00;18467;296;7504275;-36
2023/08/04 06:36:51;;;;;;;2.90;0.60;;;;;;;-128.00;-1.00;-1.00;18497;340;7504091;-38
2023/08/04 06:39:18;;;;;;;4.40;1.10;;;;;;;-128.00;-1.00;-1.00;18873;341;7504840;-32
2023/08/04 06:41:43;;;;;;;2.30;0.70;;;;;;;-128.00;-1.00;-1.00;18463;347;7504951;-32
2023/08/04 06:44:09;;;;;;;2.40;0.60;;;;;;;-128.00;-1.00;-1.00;18851;295;7505698;-33
2023/08/04 06:46:36;;;;;;;0.90;0.40;;;;;;;-128.00;-1.00;-1.00;18871;295;7504621;-33
2023/08/04 06:49:02;;;;;;;5.30;0.50;;;;;;;-128.00;-1.00;-1.00;18868;288;7504416;-36
2023/08/04 06:51:28;;;;;;;2.30;0.50;;;;;;;-128.00;-1.00;-1.00;18879;295;7505108;-37
2023/08/04 06:53:54;;;;;;;2.30;1.10;;;;;;;-128.00;-1.00;-1.00;18883;297;7504258;-32
2023/08/04 06:56:21;;;;;;;3.10;2.00;;;;;;;-128.00;-1.00;-1.00;18894;288;7505066;-36
2023/08/04 06:58:47;;;;;;;0.80;0.40;;;;;;;-128.00;-1.00;-1.00;18525;295;7504949;-32
2023/08/04 07:01:14;;;;;;;4.80;1.10;;;;;;;-128.00;-1.00;-1.00;18466;307;7506656;-35
2023/08/04 07:03:40;;;;;;;1.00;0.40;;;;;;;-128.00;-1.00;-1.00;18498;295;7504968;-32
2023/08/04 07:06:06;;;;;;;1.10;0.20;;;;;;;-128.00;-1.00;-1.00;18485;296;7504362;-36
2023/08/04 07:08:31;;;;;;;0.80;0.40;;;;;;;-128.00;-1.00;-1.00;18469;296;7506001;-32
2023/08/04 07:10:57;;;;;;;0.40;0.20;;;;;;;-128.00;-1.00;-1.00;18494;288;7505436;-32
2023/08/04 07:13:23;;;;;;;2.40;0.40;;;;;;;-128.00;-1.00;-1.00;18868;296;7504430;-35
2023/08/04 07:15:55;;;;;;;1.00;0.30;;;;;;;-128.00;-1.00;-1.00;18880;296;7504893;-35
2023/08/04 07:18:21;;;;;;;1.00;0.40;;;;;;;-128.00;-1.00;-1.00;18448;298;7504716;-31
2023/08/04 07:20:47;;;;;;;7.60;3.10;;;;;;;-128.00;-1.00;-1.00;18458;307;7504914;-31
2023/08/04 07:23:12;;;;;;;2.20;0.60;;;;;;;-128.00;-1.00;-1.00;18496;347;7505796;-35
2023/08/04 07:25:38;;;;;;;1.10;0.30;;;;;;;-128.00;-1.00;-1.00;18889;288;7504403;-32
2023/08/04 07:28:05;;;;;;;1.50;0.30;;;;;;;-128.00;-1.00;-1.00;18886;344;7504453;-35
2023/08/04 07:30:32;;;;;;;1.40;0.50;;;;;;;-128.00;-1.00;-1.00;18886;296;7504971;-32
2023/08/04 07:32:58;;;;;;;0.80;0.60;;;;;;;-128.00;-1.00;-1.00;18471;296;7505930;-31
2023/08/04 07:35:24;;;;;;;3.30;0.30;;;;;;;-128.00;-1.00;-1.00;18461;296;7504202;-33
2023/08/04 07:37:50;;;;;;;1.00;0.50;;;;;;;-128.00;-1.00;-1.00;18487;296;7506110;-36
2023/08/04 07:40:16;;;;;;;0.70;0.40;;;;;;;-128.00;-1.00;-1.00;18464;348;7505971;-32
2023/08/04 07:42:42;;;;;;;1.80;0.30;;;;;;;-128.00;-1.00;-1.00;18452;296;7504231;-35
2023/08/04 07:45:08;;;;;;;0.70;0.10;;;;;;;-128.00;-1.00;-1.00;18485;296;7505261;-35
2023/08/04 07:47:33;;;;;;;0.30;0.20;;;;;;;-128.00;-1.00;-1.00;18475;295;7505757;-36
2023/08/04 07:49:59;;;;;;;0.60;0.30;;;;;;;-128.00;-1.00;-1.00;18491;296;7504378;-36
2023/08/04 07:52:25;;;;;;;2.00;0.30;;;;;;;-128.00;-1.00;-1.00;18491;296;7505438;-32
2023/08/04 07:54:52;;;;;;;1.50;0.20;;;;;;;-128.00;-1.00;-1.00;18873;336;7505674;-36
2023/08/04 07:57:17;;;;;;;0.80;0.20;;;;;;;-128.00;-1.00;-1.00;18481;288;7505719;-31
2023/08/04 07:59:43;;;;;;;0.00;0.00;;;;;;;-128.00;-1.00;-1.00;18484;296;7505112;-35
2023/08/04 08:02:09;;;;;;;0.60;0.10;;;;;;;-128.00;-1.00;-1.00;18456;296;7505574;-32
2023/08/04 08:04:34;;;;;;;1.30;0.40;;;;;;;-128.00;-1.00;-1.00;18478;319;7506410;-35
2023/08/04 08:07:00;;;;;;;4.90;0.70;;;;;;;-128.00;-1.00;-1.00;18459;297;7505812;-35
2023/08/04 08:09:26;;;;;;;1.60;0.20;;;;;;;-128.00;-1.00;-1.00;18479;288;7505048;-35
2023/08/04 08:11:52;;;;;;;2.10;0.10;;;;;;;-128.00;-1.00;-1.00;18467;296;7504573;-32
2023/08/04 08:14:18;;;;;;;0.10;0.10;;;;;;;-128.00;-1.00;-1.00;18491;338;7505162;-31
2023/08/04 08:16:44;;;;;;;0.00;0.00;;;;;;;-128.00;-1.00;-1.00;18481;288;7507126;-31
2023/08/04 08:19:10;;;;;;;0.30;0.20;;;;;;;-128.00;-1.00;-1.00;18872;296;7505083;-35
2023/08/04 08:21:36;;;;;;;0.50;0.30;;;;;;;-128.00;-1.00;-1.00;18906;295;7504676;-35
2023/08/04 08:24:03;;;;;;;0.10;0.10;;;;;;;-128.00;-1.00;-1.00;18864;296;7504904;-31
2023/08/04 08:26:28;;;;;;;0.20;0.20;;;;;;;-128.00;-1.00;-1.00;18474;296;7506032;-35
2023/08/04 08:28:54;;;;;;;0.90;0.40;;;;;;;-128.00;-1.00;-1.00;18892;311;7504812;-35
2023/08/04 08:31:21;;;;;;;3.10;2.10;;;;;;;-128.00;-1.00;-1.00;18885;297;7504823;-35
2023/08/04 08:33:47;;;;;;;1.20;0.30;;;;;;;-128.00;-1.00;-1.00;18890;296;7504232;-35
2023/08/04 08:36:13;;;;;;;3.90;0.30;;;;;;;-128.00;-1.00;-1.00;18883;347;7504962;-32
2023/08/04 08:38:39;;;;;;;1.40;0.50;;;;;;;-128.00;-1.00;-1.00;18921;288;7504768;-30
2023/08/04 08:41:07;;;;;;;0.50;0.30;;;;;;;-128.00;-1.00;-1.00;18891;347;7505475;-32
2023/08/04 08:43:33;;;;;;;2.30;0.30;;;;;;;-128.00;-1.00;-1.00;18509;288;7504547;-35
2023/08/04 08:45:59;;;;;;;0.70;0.40;;;;;;;-128.00;-1.00;-1.00;18870;296;7505119;-35
2023/08/04 08:48:25;;;;;;;3.00;1.40;;;;;;;-128.00;-1.00;-1.00;18889;336;7505326;-35
2023/08/04 08:50:55;;;;;;;0.70;0.20;;;;;;;-128.00;-1.00;-1.00;18481;320;7505287;-36
2023/08/04 08:53:22;;;;;;;4.40;1.50;;;;;;;-128.00;-1.00;-1.00;18501;288;7505321;-32
2023/08/04 08:55:48;;;;;;;0.90;0.40;;;;;;;-128.00;-1.00;-1.00;18508;288;7506032;-37
2023/08/04 08:58:14;;;;;;;1.10;0.60;;;;;;;-128.00;-1.00;-1.00;18444;299;7504591;-35
2023/08/04 09:00:40;;;;;;;1.70;1.30;;;;;;;-128.00;-1.00;-1.00;18494;308;7505330;-35
2023/08/04 09:03:06;;;;;;;10.30;0.90;;;;;;;-128.00;-1.00;-1.00;18912;347;7504887;-33
2023/08/04 09:05:32;;;;;;;1.30;0.60;;;;;;;-128.00;-1.00;-1.00;18877;296;7504765;-36
2023/08/04 09:07:58;;;;;;;1.50;0.60;;;;;;;-128.00;-1.00;-1.00;18510;319;7506331;-33
2023/08/04 09:10:24;;;;;;;0.90;0.50;;;;;;;-128.00;-1.00;-1.00;18451;298;7504743;-32
2023/08/04 09:12:51;;;;;;;1.60;0.20;;;;;;;-128.00;-1.00;-1.00;18482;295;7504536;-36
2023/08/04 09:15:17;;;;;;;0.60;0.40;;;;;;;-128.00;-1.00;-1.00;18490;288;7504649;-36
2023/08/04 09:17:44;;;;;;;0.20;0.20;;;;;;;-128.00;-1.00;-1.00;19513;347;7504340;-32
2023/08/04 09:20:15;;;;;;;1.40;0.40;;;;;;;-128.00;-1.00;-1.00;18499;296;7504724;-32
2023/08/04 09:22:43;;;;;;;0.60;0.30;;;;;;;-128.00;-1.00;-1.00;18102;296;7505981;-36
2023/08/04 09:25:09;;;;;;;0.20;0.10;;;;;;;-128.00;-1.00;-1.00;18468;295;7504624;-32
2023/08/04 09:27:37;;;;;;;0.20;0.20;;;;;;;-128.00;-1.00;-1.00;18475;296;7504104;-37
2023/08/04 09:30:08;;;;;;;0.50;0.20;;;;;;;-128.00;-1.00;-1.00;18470;347;7504819;-32
2023/08/04 09:32:46;;;;;;;0.20;0.10;;;;;;;-128.00;-1.00;-1.00;18475;296;7504771;-32
2023/08/04 09:35:13;;;;;;;0.50;0.30;;;;;;;-128.00;-1.00;-1.00;18881;299;7504315;-32
2023/08/04 09:37:39;;;;;;;0.20;0.10;;;;;;;-128.00;-1.00;-1.00;18886;296;7504377;-33
2023/08/04 09:40:14;;;;;;;0.40;0.20;;;;;;;-128.00;-1.00;-1.00;19595;288;7504412;-36
2023/08/04 09:42:42;;;;;;;0.20;0.20;;;;;;;-128.00;-1.00;-1.00;25913;288;7505020;-32
2023/08/04 09:45:14;;;;;;;3.90;3.50;;;;;;;-128.00;-1.00;-1.00;41834;297;7504991;-36
2023/08/04 09:47:39;;;;;;;0.40;0.30;;;;;;;-128.00;-1.00;-1.00;18486;288;7504156;-32
2023/08/04 09:50:10;;;;;;;0.60;0.30;;;;;;;-128.00;-1.00;-1.00;19958;296;7504795;-35
2023/08/04 09:52:35;;;;;;;0.20;0.20;;;;;;;-128.00;-1.00;-1.00;18488;288;7505129;-36
2023/08/04 09:55:02;;;;;;;1.40;0.60;;;;;;;-128.00;-1.00;-1.00;18865;336;7504557;-36
2023/08/04 09:57:28;;;;;;;3.20;1.40;;;;;;;-128.00;-1.00;-1.00;18869;296;7505780;-35
2023/08/04 09:59:54;;;;;;;2.40;0.90;;;;;;;-128.00;-1.00;-1.00;18897;296;7504400;-32
2023/08/04 10:02:20;;;;;;;1.90;0.30;;;;;;;-128.00;-1.00;-1.00;18872;288;7505420;-32
2023/08/04 10:04:50;;;;;;;4.90;2.30;;;;;;;-128.00;-1.00;-1.00;18875;296;7504679;-33
2023/08/04 10:07:18;;;;;;;0.70;0.20;;;;;;;-128.00;-1.00;-1.00;18890;296;7504717;-32
2023/08/04 10:09:48;;;;;;;0.10;0.10;;;;;;;-128.00;-1.00;-1.00;22863;288;7505781;-32
2023/08/04 10:12:14;;;;;;;0.60;0.20;;;;;;;-128.00;-1.00;-1.00;19063;295;7505132;-32
2023/08/04 10:14:40;;;;;;;0.20;0.10;;;;;;;-128.00;-1.00;-1.00;69848;297;7504132;-33
2023/08/04 10:17:06;;;;;;;4.10;0.20;;;;;;;-128.00;-1.00;-1.00;18519;288;7505764;-37
2023/08/04 10:19:33;;;;;;;1.60;0.60;;;;;;;-128.00;-1.00;-1.00;18469;288;7505089;-33
2023/08/04 10:22:11;;;;;;;1.10;0.30;;;;;;;-128.00;-1.00;-1.00;31411;288;7505883;-33
2023/08/04 10:24:41;;;;;;;0.50;0.30;;;;;;;-128.00;-1.00;-1.00;59600;288;7503956;-33
2023/08/04 10:27:20;;;;;;;0.20;0.20;;;;;;;-128.00;-1.00;-1.00;18518;288;7504684;-33
2023/08/04 10:29:46;;;;;;;1.30;0.10;;;;;;;-128.00;-1.00;-1.00;18470;296;7505867;-32
2023/08/04 10:32:11;;;;;;;0.10;0.10;;;;;;;-128.00;-1.00;-1.00;18489;307;7504927;-33
2023/08/04 10:34:41;;;;;;;0.00;0.00;;;;;;;-128.00;-1.00;-1.00;18471;299;7504251;-36
2023/08/04 10:37:13;;;;;;;0.30;0.20;;;;;;;-128.00;-1.00;-1.00;18476;296;7504860;-36
2023/08/04 10:39:45;;;;;;;0.10;0.10;;;;;;;-128.00;-1.00;-1.00;20053;285;7504441;-36
2023/08/04 10:42:23;;;;;;;1.00;0.00;;;;;;;-128.00;-1.00;-1.00;23071;319;7505975;-36
2023/08/04 10:45:09;;;;;;;0.50;0.40;;;;;;;-99.51;19.20;19724.96;98076;296;1003076;-32
2023/08/04 10:47:44;;;;;;;0.30;0.10;;;;;;;-128.00;-1.00;-1.00;97843;295;1005473;-36
2023/08/04 10:50:10;;;;;;;2.40;0.10;;;;;;;-128.00;-1.00;-1.00;97851;296;1003015;-32
2023/08/04 10:52:36;;;;;;;0.10;0.10;;;;;;;-128.00;-1.00;-1.00;97967;296;1003387;-30
2023/08/04 10:55:04;;;;;;;0.80;0.20;;;;;;;-128.00;-1.00;-1.00;97949;295;1003569;-30
2023/08/04 10:57:33;;;;;;;1.00;0.50;;;;;;;-128.00;-1.00;-1.00;97834;295;1003155;-30
2023/08/04 11:00:00;;;;;;;0.90;0.30;;;;;;;-128.00;-1.00;-1.00;97985;296;1003162;-30
2023/08/04 11:02:26;;;;;;;2.90;0.60;;;;;;;-128.00;-1.00;-1.00;97687;296;1003618;-34
2023/08/04 11:04:52;;;;;;;2.00;0.90;;;;;;;-128.00;-1.00;-1.00;84144;295;7503509;-37
2023/08/04 11:07:21;;;;;;;0.10;0.10;;;;;;;-128.00;-1.00;-1.00;70171;296;4503037;-31
2023/08/04 11:09:47;;;;;;;0.20;0.10;;;;;;;-128.00;-1.00;-1.00;36548;295;7504374;-31
2023/08/04 11:12:14;;;;;;;0.50;0.20;;;;;;;-128.00;-1.00;-1.00;94599;288;2700585;-34
2023/08/04 11:14:42;;;;;;;0.60;0.50;;;;;;;-128.00;-1.00;-1.00;93709;295;3003200;-34
2023/08/04 11:17:11;;;;;;;1.00;0.20;;;;;;;-128.00;-1.00;-1.00;27146;297;7505182;-32
2023/08/04 11:19:37;;;;;;;0.60;0.30;;;;;;;-128.00;-1.00;-1.00;86921;285;7504284;-33
2023/08/04 11:22:07;;;;;;;0.40;0.30;;;;;;;-128.00;-1.00;-1.00;97903;295;1004305;-36
2023/08/04 11:24:32;;;;;;;0.10;0.10;;;;;;;-128.00;-1.00;-1.00;97907;295;1004614;-30
2023/08/04 11:26:58;;;;;;;0.80;0.30;;;;;;;-128.00;-1.00;-1.00;97850;295;1004422;-31
2023/08/04 11:29:25;;;;;;;0.40;0.10;;;;;;;-128.00;-1.00;-1.00;97856;295;1004718;-35
2023/08/04 11:31:51;;;;;;;0.10;0.10;;;;;;;-128.00;-1.00;-1.00;97971;295;1004725;-34
2023/08/04 11:34:17;;;;;;;1.30;0.10;;;;;;;-128.00;-1.00;-1.00;97873;295;1002905;-35
2023/08/04 11:36:43;;;;;;;0.20;0.10;;;;;;;-131.34;19.20;23753.89;98019;295;1005149;-42
2023/08/04 11:39:09;;;;;;;0.20;0.10;;;;;;;-99.51;19.20;19724.96;98268;295;1003702;-35
2023/08/04 11:41:35;;;;;;;0.10;0.10;;;;;;;-96.67;6.12;19781.93;98629;295;1004536;-32
2023/08/04 11:44:02;;;;;;;0.50;0.00;;;;;;;28.19;35.05;93905.44;101253;295;269258;-35
2023/08/04 11:46:27;;;;;;;0.10;0.10;;;;;;;-96.77;6.21;14770.82;98640;296;1002855;-35
2023/08/04 11:48:53;;;;;;;0.10;0.10;;;;;;;-128.00;-1.00;-1.00;97968;295;1002814;-35
2023/08/04 11:51:19;;;;;;;0.50;0.10;;;;;;;-128.00;-1.00;-1.00;97811;295;1003310;-34
2023/08/04 11:53:46;;;;;;;0.50;0.20;;;;;;;-128.00;-1.00;-1.00;97830;295;1004689;-33
2023/08/04 11:56:11;;;;;;;1.00;0.20;;;;;;;-128.00;-1.00;-1.00;97970;295;1004118;-35
2023/08/04 11:58:43;;;;;;;0.30;0.20;;;;;;;-65.54;13.42;39566.03;99063;288;1002717;-35
2023/08/04 12:01:25;;;;;;;0.10;0.00;;;;;;;-128.00;-1.00;-1.00;97968;295;1004322;-31
2023/08/04 12:03:51;;;;;;;0.20;0.10;;;;;;;-128.00;-1.00;-1.00;97958;296;1003773;-31
2023/08/04 12:06:18;;;;;;;0.40;0.30;;;;;;;-128.00;-1.00;-1.00;97879;295;1004032;-35
2023/08/04 12:08:51;;;;;;;0.30;0.20;;;;;;;-128.00;-1.00;-1.00;97940;296;1005570;-33
2023/08/04 12:11:17;;;;;;;0.10;0.10;;;;;;;-128.00;-1.00;-1.00;97868;295;1002927;-31
2023/08/04 12:13:43;;;;;;;2.00;0.40;;;;;;;-128.00;-1.00;-1.00;97829;285;1004272;-35